Caledon, Canada
Current Conditions -  °F | °C
As of 5:00 PM on Thursday 23 Oct 2014 (Local Time) from CYYZ Reporting Station
Few Clouds Few Clouds  
Wind Chill: 59°   Ceiling: Unl
Heat Index: 59°   Visibility: 15mi
Dew Point: 41°   Wind: 17mph
Humidity: 51%   Direction: 330°NNW
Pressure: 30.07"   Gusts: NA
Location:  43.87°N, 80°W
Report Text: CYYZ 232100Z 33015KT 15SM FEW035 FEW240 15/05 A3007 RMK SC1CI1 SC TR CI TR SLP184
Loading
Personal Weather Stations






























Interactive Weather Map
Tropical Storm Tracking
New forecast layout! Learn more

10-Day Weather Forecast

Advertisements
Track Severe Weather on mobile